createdAt,value
2019-04-26T00:01:25.261Z,0.23
2019-04-26T00:03:53.640Z,0.20
2019-04-26T00:06:22.057Z,0.27
2019-04-26T00:08:51.829Z,0.00
2019-04-26T00:11:27.914Z,0.10
2019-04-26T00:14:03.594Z,0.10
2019-04-26T00:16:33.399Z,0.13
2019-04-26T00:19:01.582Z,0.10
2019-04-26T00:21:30.779Z,0.20
2019-04-26T00:23:59.160Z,0.33
2019-04-26T00:26:27.716Z,0.30
2019-04-26T00:28:55.817Z,0.27
2019-04-26T00:31:23.965Z,0.17
2019-04-26T00:33:52.107Z,0.50
2019-04-26T00:36:20.832Z,0.30
2019-04-26T00:38:49.107Z,0.27
2019-04-26T00:41:17.227Z,0.30
2019-04-26T00:43:45.731Z,0.13
2019-04-26T00:46:14.704Z,0.30
2019-04-26T00:48:43.269Z,0.10
2019-04-26T00:51:11.456Z,0.40
2019-04-26T00:53:40.484Z,0.10
2019-04-26T00:56:08.865Z,0.27
2019-04-26T00:58:37.465Z,0.10
2019-04-26T01:01:05.579Z,0.50
2019-04-26T01:03:33.676Z,0.10
2019-04-26T01:06:03.423Z,0.47
2019-04-26T01:08:31.534Z,0.20
2019-04-26T01:10:59.654Z,0.40
2019-04-26T01:13:27.797Z,0.20
2019-04-26T01:15:56.017Z,0.10
2019-04-26T01:18:24.454Z,0.33
2019-04-26T01:20:54.321Z,0.27
2019-04-26T01:23:25.064Z,0.30
2019-04-26T01:25:57.697Z,0.27
2019-04-26T01:28:33.508Z,0.33
2019-04-26T01:31:02.621Z,0.30
2019-04-26T01:33:32.631Z,0.30
2019-04-26T01:36:12.409Z,0.57
2019-04-26T01:38:30.635Z,0.23
2019-04-26T01:41:00.407Z,0.20
2019-04-26T01:43:49.693Z,0.23
2019-04-26T01:46:29.349Z,0.47
2019-04-26T01:49:01.662Z,0.20
2019-04-26T01:51:43.441Z,0.30
2019-04-26T01:54:13.090Z,0.30
2019-04-26T01:56:41.399Z,0.40
2019-04-26T01:59:11.417Z,0.47
2019-04-26T02:04:25.772Z,0.40
2019-04-26T02:06:54.137Z,0.20
2019-04-26T02:09:22.976Z,0.20
2019-04-26T02:11:51.345Z,0.40
2019-04-26T02:14:19.537Z,0.40
2019-04-26T02:16:47.908Z,0.27
2019-04-26T02:19:16.035Z,0.40
2019-04-26T02:21:51.494Z,0.13
2019-04-26T02:24:25.327Z,0.43
2019-04-26T02:26:54.681Z,0.30
2019-04-26T02:29:26.795Z,0.27
2019-04-26T02:31:56.834Z,0.30
2019-04-26T02:34:26.081Z,0.27
2019-04-26T02:36:58.763Z,0.27
2019-04-26T02:39:29.716Z,0.27
2019-04-26T02:41:59.394Z,0.20
2019-04-26T02:44:31.323Z,0.70
2019-04-26T02:47:21.928Z,0.03
2019-04-26T02:49:52.277Z,0.53
2019-04-26T02:52:21.925Z,0.53
2019-04-26T02:54:54.278Z,0.60
2019-04-26T02:57:28.043Z,0.27
2019-04-26T03:00:00.601Z,0.30
2019-04-26T03:02:32.236Z,0.20
2019-04-26T03:05:00.169Z,0.40
2019-04-26T03:07:32.154Z,0.57
2019-04-26T03:10:00.330Z,0.40
2019-04-26T03:12:30.911Z,0.57
2019-04-26T03:15:13.253Z,0.67
2019-04-26T03:17:44.394Z,0.30
2019-04-26T03:20:21.553Z,0.33
2019-04-26T03:23:00.045Z,0.50
2019-04-26T03:25:46.219Z,0.43
2019-04-26T03:28:18.998Z,0.37
2019-04-26T03:30:52.272Z,0.60
2019-04-26T03:33:20.141Z,0.53
2019-04-26T03:36:00.639Z,0.33
2019-04-26T03:38:33.832Z,0.50
2019-04-26T03:41:14.254Z,0.80
2019-04-26T03:43:49.652Z,1.00
2019-04-26T03:46:36.672Z,0.77
2019-04-26T03:49:18.726Z,1.03
2019-04-26T03:51:51.313Z,0.73
2019-04-26T03:54:23.754Z,0.67
2019-04-26T03:57:13.275Z,0.40
2019-04-26T03:59:45.980Z,0.40
2019-04-26T04:02:20.518Z,1.53
2019-04-26T04:04:51.825Z,0.57
2019-04-26T04:07:36.239Z,0.77
2019-04-26T04:09:52.881Z,0.30
2019-04-26T04:12:22.776Z,0.30
2019-04-26T04:14:58.999Z,0.57
2019-04-26T04:17:38.708Z,0.23
2019-04-26T04:20:23.979Z,0.10
2019-04-26T04:22:56.659Z,0.50
2019-04-26T04:25:26.423Z,0.13
2019-04-26T04:27:56.126Z,0.50
2019-04-26T04:30:31.928Z,0.23
2019-04-26T04:33:01.563Z,0.40
2019-04-26T04:35:31.207Z,0.23
2019-04-26T04:38:08.747Z,0.33
2019-04-26T04:41:08.586Z,0.50
2019-04-26T04:43:41.847Z,0.33
2019-04-26T04:46:18.790Z,0.30
2019-04-26T04:48:53.164Z,0.20
2019-04-26T04:51:31.979Z,0.63
2019-04-26T04:54:19.678Z,0.40
2019-04-26T04:57:07.917Z,0.73
2019-04-26T04:59:40.537Z,0.70
2019-04-26T05:02:43.458Z,0.73
2019-04-26T05:05:27.332Z,0.30
2019-04-26T05:08:06.509Z,0.57
2019-04-26T05:10:28.463Z,0.33
2019-04-26T05:13:16.630Z,0.77
2019-04-26T05:15:59.998Z,0.60
2019-04-26T05:18:29.684Z,0.20
2019-04-26T05:21:16.128Z,0.57
2019-04-26T05:23:53.186Z,0.40
2019-04-26T05:26:24.591Z,0.63
2019-04-26T05:28:55.987Z,0.30
2019-04-26T05:31:34.878Z,0.33
2019-04-26T05:34:18.561Z,0.60
2019-04-26T05:36:51.311Z,0.50
2019-04-26T05:39:21.015Z,0.50
2019-04-26T05:42:07.371Z,0.63
2019-04-26T05:45:04.049Z,0.53
2019-04-26T05:47:40.541Z,0.40
2019-04-26T05:50:17.797Z,0.50
2019-04-26T05:53:05.937Z,0.20
2019-04-26T05:55:40.117Z,0.40
2019-04-26T05:58:18.888Z,0.53
2019-04-26T06:01:11.968Z,0.63
2019-04-26T06:04:00.920Z,0.40
2019-04-26T06:06:34.926Z,0.70
2019-04-26T06:09:30.513Z,0.40
2019-04-26T06:12:04.525Z,0.53
2019-04-26T06:14:48.085Z,0.50
2019-04-26T06:17:28.237Z,0.40
2019-04-26T06:20:02.591Z,0.60
2019-04-26T06:22:32.417Z,0.27
2019-04-26T06:25:23.533Z,0.40
2019-04-26T06:27:58.940Z,0.43
2019-04-26T06:30:31.525Z,0.83
2019-04-26T06:33:07.295Z,0.40
2019-04-26T06:35:38.889Z,0.33
2019-04-26T06:38:13.022Z,0.53
2019-04-26T06:40:42.793Z,0.23
2019-04-26T06:43:14.112Z,0.47
2019-04-26T06:45:48.161Z,0.33
2019-04-26T06:48:31.232Z,0.50
2019-04-26T06:51:00.921Z,0.43
2019-04-26T06:53:30.554Z,0.30
2019-04-26T06:56:13.876Z,0.40
2019-04-26T06:58:59.253Z,0.63
2019-04-26T07:01:38.183Z,0.53
2019-04-26T07:04:10.520Z,0.73
2019-04-26T07:06:40.199Z,0.43
2019-04-26T07:09:11.548Z,0.53
2019-04-26T07:11:55.141Z,0.27
2019-04-26T07:14:41.544Z,0.80
2019-04-26T07:17:12.231Z,0.30
2019-04-26T07:20:04.013Z,0.53
2019-04-26T07:22:41.057Z,0.60
2019-04-26T07:25:12.345Z,0.37
2019-04-26T07:27:42.053Z,0.73
2019-04-26T07:30:14.621Z,1.10
2019-04-26T07:33:01.466Z,0.80
2019-04-26T07:35:32.034Z,0.50
2019-04-26T07:38:16.592Z,0.40
2019-04-26T07:40:53.470Z,0.50
2019-04-26T07:43:33.663Z,0.43
2019-04-26T07:46:04.074Z,0.70
2019-04-26T07:48:50.734Z,0.67
2019-04-26T07:51:29.192Z,0.50
2019-04-26T07:54:34.882Z,0.47
2019-04-26T07:57:04.626Z,0.40
2019-04-26T07:59:51.179Z,0.63
2019-04-26T08:02:22.502Z,0.40
2019-04-26T08:04:58.349Z,0.70
2019-04-26T08:07:28.044Z,0.20
2019-04-26T08:09:59.830Z,0.40
2019-04-26T08:12:29.184Z,0.63
2019-04-26T08:15:00.558Z,0.37
2019-04-26T08:17:34.775Z,0.27
2019-04-26T08:20:12.903Z,0.67
2019-04-26T08:22:43.223Z,0.30
2019-04-26T08:25:12.939Z,0.33
2019-04-26T08:27:41.912Z,0.20
2019-04-26T08:30:15.399Z,0.33
2019-04-26T08:32:43.069Z,0.23
2019-04-26T08:35:18.313Z,0.43
2019-04-26T08:37:49.476Z,0.20
2019-04-26T08:40:27.508Z,0.50
2019-04-26T08:42:53.380Z,0.50
2019-04-26T08:45:40.436Z,0.40
2019-04-26T08:48:22.410Z,0.53
2019-04-26T08:50:52.453Z,0.50
2019-04-26T08:53:21.829Z,0.33
2019-04-26T08:55:50.326Z,0.40
2019-04-26T08:58:19.985Z,0.23
2019-04-26T09:00:54.175Z,0.27
2019-04-26T09:03:25.306Z,0.30
2019-04-26T09:06:02.021Z,0.77
2019-04-26T09:08:31.704Z,0.20
2019-04-26T09:11:01.402Z,0.10
2019-04-26T09:13:31.053Z,0.30
2019-04-26T09:16:00.767Z,0.37
2019-04-26T09:18:28.975Z,0.70
2019-04-26T09:20:57.106Z,0.17
2019-04-26T09:23:39.903Z,0.37
2019-04-26T09:26:08.289Z,0.37
2019-04-26T09:28:52.886Z,0.37
2019-04-26T09:31:30.022Z,0.30
2019-04-26T09:33:59.872Z,0.40
2019-04-26T09:36:28.008Z,0.50
2019-04-26T09:38:56.154Z,0.43
2019-04-26T09:41:26.666Z,0.50
2019-04-26T09:43:58.754Z,0.20
2019-04-26T09:46:33.318Z,0.40
2019-04-26T09:49:06.886Z,0.33
2019-04-26T09:51:34.873Z,0.20
2019-04-26T09:54:03.324Z,0.20
2019-04-26T09:56:31.457Z,0.30
2019-04-26T09:59:01.478Z,0.80
2019-04-26T10:01:30.049Z,0.23
2019-04-26T10:03:58.160Z,0.20
2019-04-26T10:06:29.614Z,0.23
2019-04-26T10:08:56.154Z,0.50
2019-04-26T10:11:25.966Z,0.73
2019-04-26T10:14:04.920Z,0.30
2019-04-26T10:16:42.404Z,0.10
2019-04-26T10:19:11.221Z,0.50
2019-04-26T10:21:39.325Z,0.50
2019-04-26T10:24:08.468Z,0.20
2019-04-26T10:26:36.845Z,0.23
2019-04-26T10:29:05.410Z,0.23
2019-04-26T10:31:33.579Z,0.47
2019-04-26T10:34:01.712Z,0.23
2019-04-26T10:36:31.224Z,0.23
2019-04-26T10:38:59.803Z,0.30
2019-04-26T10:41:28.065Z,0.20
2019-04-26T10:43:56.183Z,0.30
2019-04-26T10:46:24.468Z,0.80
2019-04-26T10:49:08.497Z,0.50
2019-04-26T10:51:33.732Z,0.60
2019-04-26T10:54:07.636Z,0.50
2019-04-26T10:56:37.684Z,0.43
2019-04-26T10:59:16.402Z,0.30
2019-04-26T11:01:44.572Z,0.23
2019-04-26T11:04:12.756Z,0.53
2019-04-26T11:06:40.964Z,0.33
2019-04-26T11:09:09.093Z,0.33
2019-04-26T11:11:37.605Z,0.20
2019-04-26T11:14:06.020Z,0.40
2019-04-26T11:16:37.187Z,0.30
2019-04-26T11:19:04.420Z,0.60
2019-04-26T11:21:33.034Z,0.67
2019-04-26T11:24:01.153Z,0.63
2019-04-26T11:26:31.077Z,0.20
2019-04-26T11:28:59.170Z,0.40
2019-04-26T11:31:28.053Z,0.20
2019-04-26T11:34:05.234Z,0.37
2019-04-26T11:36:27.001Z,0.17
2019-04-26T11:38:55.179Z,0.40
2019-04-26T11:41:23.317Z,0.37
2019-04-26T11:43:52.898Z,0.40
2019-04-26T11:46:28.977Z,0.20
2019-04-26T11:48:58.811Z,0.23
2019-04-26T11:51:23.571Z,0.33
2019-04-26T11:53:52.395Z,0.40
2019-04-26T11:56:20.517Z,0.30
2019-04-26T11:58:48.650Z,0.30
2019-04-26T12:01:18.384Z,0.43
2019-04-26T12:04:07.134Z,0.23
2019-04-26T12:06:38.756Z,0.50
2019-04-26T12:09:23.512Z,0.30
2019-04-26T12:12:04.027Z,0.20
2019-04-26T12:14:29.625Z,0.40
2019-04-26T12:16:59.733Z,0.10
2019-04-26T12:19:26.907Z,0.50
2019-04-26T12:21:55.168Z,0.30
2019-04-26T12:24:25.312Z,0.47
2019-04-26T12:26:55.999Z,0.83
2019-04-26T12:29:23.005Z,0.20
2019-04-26T12:31:51.141Z,0.53
2019-04-26T12:34:19.265Z,0.47
2019-04-26T12:36:47.370Z,0.40
2019-04-26T12:39:17.052Z,0.73
2019-04-26T12:41:45.208Z,0.60
2019-04-26T12:44:14.522Z,0.67
2019-04-26T12:46:53.332Z,0.37
2019-04-26T12:49:24.277Z,0.50
2019-04-26T12:51:52.174Z,0.30
2019-04-26T12:54:20.412Z,1.10
2019-04-26T12:56:48.541Z,0.33
2019-04-26T12:59:16.652Z,0.67
2019-04-26T13:01:46.357Z,0.47
2019-04-26T13:04:14.627Z,0.40
2019-04-26T13:07:02.417Z,0.47
2019-04-26T13:09:30.657Z,0.40
2019-04-26T13:12:00.422Z,0.13
2019-04-26T13:14:33.052Z,0.40
2019-04-26T13:17:05.648Z,0.27
2019-04-26T13:19:33.782Z,0.30
2019-04-26T13:22:01.913Z,0.30
2019-04-26T13:24:30.041Z,0.70
2019-04-26T13:26:58.215Z,0.30
2019-04-26T13:29:27.302Z,0.20
2019-04-26T13:32:02.145Z,0.40
2019-04-26T13:34:33.333Z,0.10
2019-04-26T13:37:03.056Z,0.30
2019-04-26T13:39:29.939Z,0.60
2019-04-26T13:42:04.580Z,0.30
2019-04-26T13:44:45.965Z,0.30
2019-04-26T13:47:19.010Z,0.00
2019-04-26T13:49:52.442Z,0.40
2019-04-26T13:52:18.666Z,0.30
2019-04-26T13:54:46.764Z,0.40
2019-04-26T13:57:16.147Z,0.27
2019-04-26T13:59:44.305Z,0.27
2019-04-26T14:02:12.432Z,0.10
2019-04-26T14:04:41.157Z,0.10
2019-04-26T14:07:10.404Z,0.20
2019-04-26T14:09:38.592Z,0.13
2019-04-26T14:12:18.328Z,0.40
2019-04-26T14:14:36.566Z,0.40
2019-04-26T14:17:04.697Z,0.30
2019-04-26T14:19:32.796Z,0.20
2019-04-26T14:22:10.170Z,0.10
2019-04-26T14:24:39.929Z,0.10
2019-04-26T14:27:10.354Z,0.10
2019-04-26T14:29:39.581Z,0.33
2019-04-26T14:32:07.748Z,0.20
2019-04-26T14:34:36.271Z,0.10
2019-04-26T14:37:06.861Z,0.40
2019-04-26T14:39:49.542Z,0.00
2019-04-26T14:42:05.517Z,0.10
2019-04-26T14:44:33.676Z,0.10
2019-04-26T14:47:13.220Z,0.07
2019-04-26T14:49:39.026Z,0.03
2019-04-26T14:52:01.524Z,0.00
2019-04-26T14:54:29.661Z,0.10
2019-04-26T14:56:59.805Z,0.13
2019-04-26T14:59:46.829Z,0.10
2019-04-26T15:02:15.764Z,0.20
2019-04-26T15:04:48.441Z,0.43
2019-04-26T15:07:16.563Z,0.13
2019-04-26T15:09:44.668Z,0.20
2019-04-26T15:12:15.819Z,0.40
2019-04-26T15:14:42.677Z,0.40
2019-04-26T15:17:12.314Z,0.10
2019-04-26T15:19:45.939Z,0.30
2019-04-26T15:22:12.081Z,0.30
2019-04-26T15:24:49.069Z,0.20
2019-04-26T15:27:17.204Z,0.10
2019-04-26T15:29:45.342Z,0.00
2019-04-26T15:32:13.477Z,0.00
2019-04-26T15:34:41.647Z,0.17
2019-04-26T15:37:09.818Z,0.07
2019-04-26T15:39:44.263Z,0.57
2019-04-26T15:42:13.857Z,0.40
2019-04-26T15:45:01.732Z,0.20
2019-04-26T15:47:39.566Z,0.20
2019-04-26T15:50:10.126Z,0.10
2019-04-26T15:52:39.217Z,0.00
2019-04-26T15:55:07.589Z,0.10
2019-04-26T15:57:35.736Z,0.10
2019-04-26T16:00:05.372Z,0.20
2019-04-26T16:02:33.479Z,0.00
2019-04-26T16:05:02.578Z,0.10
2019-04-26T16:07:30.913Z,0.30
2019-04-26T16:09:59.053Z,0.50
2019-04-26T16:12:27.329Z,0.43
2019-04-26T16:14:55.638Z,0.20
2019-04-26T16:17:23.728Z,0.17
2019-04-26T16:19:51.825Z,0.47
2019-04-26T16:22:19.954Z,0.27
2019-04-26T16:24:48.073Z,0.40
2019-04-26T16:27:16.203Z,0.20
2019-04-26T16:29:46.790Z,0.00
2019-04-26T16:32:34.824Z,0.10
2019-04-26T16:35:03.241Z,0.33
2019-04-26T16:37:33.073Z,0.23
2019-04-26T16:40:01.317Z,0.30
2019-04-26T16:42:29.531Z,0.00
2019-04-26T16:45:04.074Z,0.10
2019-04-26T16:47:27.492Z,0.33
2019-04-26T16:49:55.605Z,0.03
2019-04-26T16:52:23.943Z,0.00
2019-04-26T16:54:52.999Z,0.00
2019-04-26T16:57:24.199Z,0.20
2019-04-26T16:59:57.540Z,0.27
2019-04-26T17:02:26.214Z,0.10
2019-04-26T17:04:53.253Z,0.30
2019-04-26T17:07:25.404Z,0.10
2019-04-26T17:09:57.836Z,0.10
2019-04-26T17:12:20.470Z,0.20
2019-04-26T17:14:49.094Z,0.10
2019-04-26T17:17:17.284Z,0.00
2019-04-26T17:19:45.465Z,0.10
2019-04-26T17:22:18.164Z,0.20
2019-04-26T17:24:47.941Z,0.10
2019-04-26T17:27:17.723Z,0.00
2019-04-26T17:29:45.876Z,0.20
2019-04-26T17:32:17.377Z,0.10
2019-04-26T17:34:43.819Z,0.10
2019-04-26T17:37:16.640Z,0.30
2019-04-26T17:39:41.776Z,0.10
2019-04-26T17:42:10.515Z,0.27
2019-04-26T17:44:38.786Z,0.00
2019-04-26T17:47:08.438Z,0.23
2019-04-26T17:49:40.219Z,0.10
2019-04-26T17:52:06.584Z,0.20
2019-04-26T17:54:46.077Z,0.20
2019-04-26T17:57:08.849Z,0.10
2019-04-26T17:59:36.731Z,0.30
2019-04-26T18:02:18.065Z,0.00
2019-04-26T18:04:37.017Z,0.10
2019-04-26T18:07:33.347Z,0.30
2019-04-26T18:09:43.968Z,0.20
2019-04-26T18:12:04.941Z,0.30
2019-04-26T18:14:33.048Z,0.10
2019-04-26T18:17:04.405Z,0.13
2019-04-26T18:19:37.061Z,0.10
2019-04-26T18:22:06.868Z,0.30
2019-04-26T18:24:35.146Z,0.20
2019-04-26T18:27:03.658Z,0.30
2019-04-26T18:29:33.583Z,0.10
2019-04-26T18:32:03.665Z,0.20
2019-04-26T18:34:36.788Z,0.00
2019-04-26T18:37:04.231Z,0.00
2019-04-26T18:39:33.082Z,0.03
2019-04-26T18:42:02.963Z,0.07
2019-04-26T18:44:36.927Z,0.00
2019-04-26T18:47:02.902Z,0.10
2019-04-26T18:49:32.861Z,0.00
2019-04-26T18:52:00.949Z,0.13
2019-04-26T18:54:30.709Z,0.10
2019-04-26T18:57:00.488Z,0.20
2019-04-26T18:59:28.622Z,0.10
2019-04-26T19:01:56.737Z,0.10
2019-04-26T19:04:24.850Z,0.00
2019-04-26T19:06:53.036Z,0.03
2019-04-26T19:09:23.302Z,0.10
2019-04-26T19:11:52.868Z,0.00
2019-04-26T19:14:28.620Z,0.20
2019-04-26T19:17:04.503Z,0.20
2019-04-26T19:19:37.157Z,0.10
2019-04-26T19:22:09.346Z,0.00
2019-04-26T19:24:38.582Z,0.10
2019-04-26T19:27:06.001Z,0.20
2019-04-26T19:29:36.140Z,0.20
2019-04-26T19:32:04.620Z,0.10
2019-04-26T19:34:32.843Z,0.00
2019-04-26T19:37:03.242Z,0.10
2019-04-26T19:39:35.055Z,0.03
2019-04-26T19:42:02.366Z,0.00
2019-04-26T19:44:31.587Z,0.00
2019-04-26T19:47:19.895Z,0.20
2019-04-26T19:50:09.617Z,0.20
2019-04-26T19:52:39.512Z,0.10
2019-04-26T19:55:22.584Z,0.13
2019-04-26T19:57:52.746Z,0.30
2019-04-26T20:00:21.631Z,0.30
2019-04-26T20:02:49.854Z,0.17
2019-04-26T20:05:17.971Z,0.00
2019-04-26T20:07:46.107Z,0.17
2019-04-26T20:10:14.322Z,0.20
2019-04-26T20:12:42.455Z,0.10
2019-04-26T20:15:24.900Z,0.00
2019-04-26T20:17:40.549Z,0.20
2019-04-26T20:20:19.032Z,0.10
2019-04-26T20:22:38.672Z,0.13
2019-04-26T20:25:06.797Z,0.20
2019-04-26T20:27:34.937Z,0.10
2019-04-26T20:30:04.957Z,0.00
2019-04-26T20:32:37.732Z,0.20
2019-04-26T20:35:14.801Z,0.03
2019-04-26T20:37:45.169Z,0.00
2019-04-26T20:40:20.163Z,0.20
2019-04-26T20:42:44.837Z,0.30
2019-04-26T20:45:16.842Z,0.17
2019-04-26T20:47:46.778Z,0.10
2019-04-26T20:50:13.998Z,0.00
2019-04-26T20:52:45.124Z,0.03
2019-04-26T20:55:13.768Z,0.27
2019-04-26T20:57:44.173Z,0.10
2019-04-26T21:00:12.665Z,0.40
2019-04-26T21:02:41.066Z,0.03
2019-04-26T21:05:11.329Z,0.10
2019-04-26T21:07:39.215Z,0.20
2019-04-26T21:10:07.585Z,0.10
2019-04-26T21:12:35.684Z,0.10
2019-04-26T21:15:04.469Z,0.10
2019-04-26T21:17:32.612Z,0.13
2019-04-26T21:20:02.203Z,0.30
2019-04-26T21:22:31.723Z,0.30
2019-04-26T21:25:04.704Z,0.10
2019-04-26T21:27:34.652Z,0.27
2019-04-26T21:30:07.100Z,0.20
2019-04-26T21:32:51.485Z,0.20
2019-04-26T21:35:25.031Z,0.20
2019-04-26T21:38:07.061Z,0.10
2019-04-26T21:40:36.809Z,0.20
2019-04-26T21:43:04.943Z,0.30
2019-04-26T21:45:33.940Z,0.53
2019-04-26T21:48:02.556Z,0.30
2019-04-26T21:50:36.063Z,0.27
2019-04-26T21:53:05.079Z,0.20
2019-04-26T21:55:35.704Z,0.13
2019-04-26T21:58:02.676Z,0.13
2019-04-26T22:00:39.288Z,0.13
2019-04-26T22:03:07.807Z,0.30
2019-04-26T22:05:37.325Z,0.50
2019-04-26T22:08:05.462Z,0.40
2019-04-26T22:10:39.526Z,1.13
2019-04-26T22:13:09.744Z,1.50
2019-04-26T22:15:49.122Z,0.97
2019-04-26T22:18:21.874Z,0.80
2019-04-26T22:20:58.740Z,1.43
2019-04-26T22:23:47.617Z,0.73
2019-04-26T22:26:17.770Z,0.57
2019-04-26T22:28:45.955Z,0.97
2019-04-26T22:31:14.049Z,1.20
2019-04-26T22:33:42.841Z,1.80
2019-04-26T22:36:13.165Z,0.83
2019-04-26T22:38:42.768Z,0.77
2019-04-26T22:41:30.454Z,0.97
2019-04-26T22:44:03.893Z,0.83
2019-04-26T22:46:46.421Z,1.30
2019-04-26T22:49:06.897Z,1.17
2019-04-26T22:51:37.202Z,0.87
2019-04-26T22:54:06.332Z,1.30
2019-04-26T22:56:36.998Z,1.00
2019-04-26T22:59:07.620Z,0.97
2019-04-26T23:01:39.341Z,1.00
2019-04-26T23:04:04.865Z,1.60
2019-04-26T23:06:33.754Z,1.47
2019-04-26T23:09:01.969Z,1.60
2019-04-26T23:14:17.791Z,1.37
2019-04-26T23:19:44.700Z,0.60
2019-04-26T23:22:12.903Z,0.77
2019-04-26T23:24:42.797Z,1.27
2019-04-26T23:27:16.383Z,1.03
2019-04-26T23:29:40.826Z,0.93
2019-04-26T23:32:12.040Z,0.40
2019-04-26T23:34:38.916Z,0.67
2019-04-26T23:37:07.221Z,0.57
2019-04-26T23:39:35.470Z,0.70
2019-04-26T23:42:03.960Z,0.73
2019-04-26T23:44:33.097Z,0.80
2019-04-26T23:47:02.274Z,0.80
2019-04-26T23:49:31.275Z,0.90
2019-04-26T23:51:59.373Z,0.57
2019-04-26T23:54:28.050Z,0.63
2019-04-26T23:56:58.693Z,0.30
2019-04-26T23:59:27.837Z,0.27
